Time;durP1;ratioP1;P1;durP2;ratioP2;P2;SDS_P1;SDS_P2;PMS_P1;PMS_P2;Temp;Humidity;BMP_temperature;BMP_pressure;BME280_temperature;BME280_humidity;BME280_pressure;Samples;Min_cycle;Max_cycle;Signal;HPM_P1;HPM_P2
2021/04/26 01:02:59;;;;;;;1.65;0.70;;;3.80;55.60;;;;;;3475187;41;20045;-89
2021/04/26 01:05:29;;;;;;;2.22;0.73;;;3.80;55.70;;;;;;3475605;41;20037;-86
2021/04/26 01:08:15;;;;;;;2.22;0.90;;;3.70;56.00;;;;;;3476786;41;20038;-91
2021/04/26 01:11:09;;;;;;;1.10;0.70;;;3.80;56.30;;;;;;3467264;41;20053;-86
2021/04/26 01:13:56;;;;;;;4.13;0.70;;;3.80;56.20;;;;;;3467695;41;20039;-85
2021/04/26 01:16:34;;;;;;;1.35;0.50;;;3.80;56.50;;;;;;3467857;41;20050;-85
2021/04/26 01:19:18;;;;;;;2.80;0.75;;;3.80;56.60;;;;;;3467768;41;20031;-83
2021/04/26 02:36:54;;;;;;;2.58;0.85;;;3.00;63.00;;;;;;3447352;41;20036;-84
2021/04/26 02:39:22;;;;;;;4.18;0.93;;;3.00;63.10;;;;;;3456125;41;20054;-85
2021/04/26 02:41:52;;;;;;;2.95;0.90;;;2.90;63.30;;;;;;3457432;41;20030;-88
2021/04/26 02:44:24;;;;;;;4.07;1.10;;;2.90;63.50;;;;;;3465467;41;20046;-88
2021/04/26 02:47:06;;;;;;;9.30;1.75;;;2.90;63.60;;;;;;3465734;41;20038;-89
2021/04/26 02:49:39;;;;;;;2.85;1.00;;;2.90;64.60;;;;;;3457970;41;20119;-88
2021/04/26 02:55:01;;;;;;;2.33;0.90;;;2.90;64.70;;;;;;5793372;23;20070;-83
2021/04/26 02:57:34;;;;;;;5.35;2.25;;;2.90;65.20;;;;;;3476186;41;20033;-84
2021/04/26 03:00:04;;;;;;;4.03;1.48;;;2.80;65.30;;;;;;3468459;41;20053;-85
2021/04/26 03:02:34;;;;;;;3.15;1.13;;;2.80;64.80;;;;;;3475605;41;20045;-85
2021/04/26 03:05:05;;;;;;;3.45;1.23;;;2.80;64.60;;;;;;3475446;41;20034;-85
2021/04/26 03:07:35;;;;;;;6.35;1.63;;;2.70;64.30;;;;;;3474050;41;20061;-84
2021/04/26 03:10:09;;;;;;;3.85;1.15;;;2.60;64.70;;;;;;3474118;41;20061;-86
2021/04/26 03:12:40;;;;;;;3.08;0.98;;;2.70;65.20;;;;;;3467197;41;20054;-85
2021/04/26 03:15:11;;;;;;;7.65;1.63;;;2.70;65.30;;;;;;3466475;41;20050;-85
2021/04/26 03:17:39;;;;;;;5.00;1.42;;;2.70;65.80;;;;;;3475030;41;20038;-86
2021/04/26 03:20:11;;;;;;;6.93;2.15;;;2.70;65.80;;;;;;3467071;41;20046;-88
2021/04/26 03:22:55;;;;;;;2.65;1.17;;;2.80;66.20;;;;;;3466257;41;20039;-86
2021/04/26 03:25:25;;;;;;;12.98;5.60;;;2.70;66.50;;;;;;3465986;41;20047;-84
2021/04/26 03:27:56;;;;;;;9.43;2.92;;;2.70;66.90;;;;;;3465850;41;20030;-83
2021/04/26 03:30:29;;;;;;;5.63;2.00;;;2.70;66.90;;;;;;3469210;41;20039;-85
2021/04/26 03:33:10;;;;;;;11.80;4.13;;;2.70;67.10;;;;;;3481660;41;20050;-85
2021/04/26 03:35:38;;;;;;;7.05;1.92;;;2.70;67.60;;;;;;3475749;41;20034;-84
2021/04/26 03:38:07;;;;;;;5.82;2.38;;;2.60;67.80;;;;;;3475111;41;20066;-84
2021/04/26 03:40:37;;;;;;;;;;;2.70;68.00;;;;;;3474394;41;20041;-85
2021/04/26 03:43:06;;;;;;;13.00;4.18;;;2.60;68.50;;;;;;3466529;41;19944;-84
2021/04/26 03:46:08;;;;;;;9.73;2.13;;;2.60;69.00;;;;;;3464828;41;20201;-88
2021/04/26 03:48:45;;;;;;;9.15;1.70;;;2.60;69.40;;;;;;3465057;41;20035;-88
2021/04/26 03:51:31;;;;;;;4.82;1.70;;;2.60;69.80;;;;;;3457242;41;20035;-86
2021/04/26 03:54:25;;;;;;;4.90;1.60;;;2.50;70.20;;;;;;3436947;41;20044;-85
2021/04/26 03:56:54;;;;;;;5.10;2.08;;;2.60;70.60;;;;;;3444194;41;20044;-89
2021/04/26 03:59:25;;;;;;;8.18;2.05;;;2.60;71.00;;;;;;3429365;42;20040;-90
2021/04/26 04:01:52;;;;;;;8.93;2.20;;;2.60;71.50;;;;;;3435470;41;20040;-87
2021/04/26 04:04:21;;;;;;;3.57;2.00;;;2.60;72.20;;;;;;3444792;41;20036;-87
2021/04/26 04:19:11;;;;;;;10.07;2.20;;;2.80;74.00;;;;;;5823876;24;20029;-81
2021/04/26 04:21:40;;;;;;;6.37;1.80;;;2.80;74.20;;;;;;3464389;41;20039;-87
2021/04/26 04:24:11;;;;;;;7.43;3.03;;;2.80;73.90;;;;;;3465126;41;20035;-88
2021/04/26 04:26:39;;;;;;;12.57;4.00;;;2.80;73.70;;;;;;3465447;41;20042;-87
2021/04/26 04:29:08;;;;;;;4.82;1.67;;;2.80;74.50;;;;;;3465288;41;20111;-89
2021/04/26 04:32:04;;;;;;;7.00;2.60;;;2.80;74.70;;;;;;3693862;24;20320;-85
2021/04/26 04:34:53;;;;;;;9.03;2.30;;;2.80;74.70;;;;;;3474803;41;20050;-84
2021/04/26 04:37:39;;;;;;;6.97;2.07;;;2.80;74.70;;;;;;3474810;41;20047;-88
2021/04/26 04:40:26;;;;;;;7.23;2.37;;;2.90;74.50;;;;;;3475895;41;20038;-91
2021/04/26 04:43:01;;;;;;;6.87;1.90;;;2.80;74.10;;;;;;3461829;41;20038;-87
2021/04/26 04:45:37;;;;;;;6.60;1.80;;;2.90;73.80;;;;;;3476293;41;20030;-86
2021/04/26 04:48:25;;;;;;;5.80;1.45;;;2.90;73.20;;;;;;3447203;41;20032;-84
2021/04/26 04:50:56;;;;;;;4.55;1.67;;;2.90;72.30;;;;;;3447688;41;20039;-87
2021/04/26 04:53:30;;;;;;;;;;;2.90;72.20;;;;;;3448022;41;20024;-84
2021/04/26 04:55:58;;;;;;;7.20;2.00;;;2.90;72.70;;;;;;3447641;41;19952;-86
2021/04/26 04:58:36;;;;;;;6.63;1.70;;;3.00;73.00;;;;;;3447455;41;20076;-85
2021/04/26 05:01:04;;;;;;;5.35;2.00;;;3.10;72.90;;;;;;3447887;41;20031;-88
2021/04/26 05:03:54;;;;;;;7.33;2.07;;;3.20;72.40;;;;;;3440757;41;20052;-86
2021/04/26 05:06:48;;;;;;;7.25;2.08;;;3.30;71.90;;;;;;3416448;42;20044;-84
2021/04/26 05:09:54;;;;;;;8.27;2.13;;;3.40;71.90;;;;;;3428631;42;20039;-85
2021/04/26 05:12:40;;;;;;;5.80;1.80;;;3.50;71.20;;;;;;3415868;42;20041;-85
2021/04/26 05:15:34;;;;;;;4.45;1.70;;;3.60;70.40;;;;;;5879704;24;21027;-80
2021/04/26 05:18:02;;;;;;;7.18;2.03;;;3.70;69.60;;;;;;3459356;41;20046;-84
2021/04/26 05:20:30;;;;;;;7.20;1.85;;;3.80;69.20;;;;;;3451875;41;20046;-85
2021/04/26 05:22:58;;;;;;;7.38;2.50;;;3.90;69.10;;;;;;3467323;41;20038;-89
2021/04/26 05:25:26;;;;;;;7.20;1.90;;;3.90;68.60;;;;;;3475254;41;20035;-83
2021/04/26 05:27:54;;;;;;;8.95;2.90;;;4.20;67.50;;;;;;3475021;41;20089;-85
2021/04/26 05:30:23;;;;;;;7.70;2.77;;;4.30;66.30;;;;;;3459148;41;20037;-84
2021/04/26 05:32:52;;;;;;;4.47;1.77;;;4.40;65.00;;;;;;3474964;41;20287;-85
2021/04/26 05:35:40;;;;;;;4.03;1.77;;;4.70;63.20;;;;;;3474907;41;20038;-85
2021/04/26 05:38:15;;;;;;;3.65;1.50;;;4.90;61.70;;;;;;3462001;41;20045;-83
2021/04/26 05:40:48;;;;;;;6.38;2.03;;;5.00;60.40;;;;;;3466968;41;20039;-84
2021/04/26 05:49:52;;;;;;;5.13;1.58;;;5.30;57.00;;;;;;3909508;24;20077;-88
2021/04/26 06:04:25;;;;;;;6.53;1.80;;;5.80;55.50;;;;;;4172141;24;20066;-87
2021/04/26 06:06:53;;;;;;;3.83;1.50;;;5.90;55.10;;;;;;3494061;41;20033;-85
2021/04/26 07:12:02;;;;;;;6.25;1.58;;;7.90;47.70;;;;;;3470166;41;20050;-94
2021/04/26 07:14:29;;;;;;;4.13;0.95;;;7.90;48.00;;;;;;3475740;41;20026;-87
2021/04/26 07:16:59;;;;;;;7.78;1.27;;;7.90;47.80;;;;;;3475871;41;20034;-87
2021/04/26 07:19:27;;;;;;;2.67;1.20;;;8.00;47.40;;;;;;3475585;41;20037;-86
2021/04/26 07:58:57;;;;;;;4.90;1.25;;;8.80;47.20;;;;;;3483288;41;20038;-87
2021/04/26 08:05:47;;;;;;;2.08;0.70;;;9.10;47.00;;;;;;3418333;42;20037;-85
2021/04/26 08:14:38;;;;;;;3.53;0.90;;;9.30;47.00;;;;;;5027195;24;20041;-83
2021/04/26 08:17:29;;;;;;;3.30;0.85;;;9.40;46.90;;;;;;4087910;24;20070;-84
2021/04/26 08:20:43;;;;;;;3.88;1.13;;;9.50;47.00;;;;;;3454297;41;20059;-83
2021/04/26 08:26:25;;;;;;;3.13;1.20;;;9.40;46.50;;;;;;3888875;24;20078;-85
2021/04/26 08:29:14;;;;;;;4.07;1.10;;;9.50;46.20;;;;;;3454937;41;20079;-80
2021/04/26 08:32:27;;;;;;;1.63;0.73;;;9.50;46.50;;;;;;3437333;42;20076;-82
2021/04/26 08:35:18;;;;;;;4.63;0.90;;;9.50;45.90;;;;;;3406935;42;20034;-85
2021/04/26 08:41:47;;;;;;;5.40;1.60;;;9.50;45.60;;;;;;5424674;24;20041;-84
2021/04/26 08:44:36;;;;;;;4.00;1.73;;;9.60;44.30;;;;;;3455152;41;20051;-84
2021/04/26 08:47:25;;;;;;;3.83;1.25;;;9.60;44.50;;;;;;3408648;42;20069;-84
2021/04/26 08:50:14;;;;;;;3.00;1.05;;;9.70;45.60;;;;;;3398960;42;20136;-85
2021/04/26 09:31:13;;;;;;;5.88;1.00;;;10.20;43.60;;;;;;3400190;42;20070;-85
2021/04/26 09:33:43;;;;;;;;;;;10.20;43.40;;;;;;3412695;42;20073;-85
2021/04/26 09:36:16;;;;;;;5.75;0.85;;;10.20;43.20;;;;;;3440731;41;19965;-84
2021/04/26 09:39:37;;;;;;;2.97;1.00;;;10.10;43.30;;;;;;3455403;41;20065;-82
2021/04/26 09:42:06;;;;;;;2.78;1.00;;;10.10;43.30;;;;;;3473138;41;20082;-89
2021/04/26 09:44:34;;;;;;;3.72;0.90;;;10.20;43.40;;;;;;3467201;41;20053;-83
2021/04/26 09:47:25;;;;;;;3.75;1.02;;;10.10;43.10;;;;;;3481921;41;20037;-84
2021/04/26 09:50:04;;;;;;;5.15;1.40;;;10.00;42.70;;;;;;3484663;41;20065;-88
2021/04/26 09:52:32;;;;;;;4.00;0.80;;;10.20;43.10;;;;;;3477663;41;20038;-85
2021/04/26 09:55:00;;;;;;;6.63;0.88;;;10.70;41.60;;;;;;3456125;41;20034;-87
2021/04/26 09:57:28;;;;;;;7.55;1.30;;;11.50;40.70;;;;;;3464104;41;20066;-84
2021/04/26 09:59:57;;;;;;;2.55;0.82;;;12.10;39.60;;;;;;3469487;41;20063;-84
2021/04/26 10:02:27;;;;;;;7.25;1.02;;;12.60;37.90;;;;;;3477256;41;20109;-86
2021/04/26 10:04:54;;;;;;;9.67;1.27;;;13.30;37.50;;;;;;3469263;41;20042;-85
2021/04/26 10:07:22;;;;;;;3.75;1.20;;;14.10;36.10;;;;;;3482775;41;20030;-86
2021/04/26 10:09:52;;;;;;;2.10;0.93;;;15.00;35.20;;;;;;3484941;41;20038;-86
2021/04/26 10:12:20;;;;;;;5.00;1.25;;;15.60;34.60;;;;;;3479785;41;20077;-85
2021/04/26 10:14:47;;;;;;;2.63;1.00;;;16.30;34.10;;;;;;3468732;41;20083;-86
2021/04/26 10:17:20;;;;;;;8.98;1.80;;;16.90;32.80;;;;;;3467463;41;20075;-86
2021/04/26 10:19:51;;;;;;;5.82;1.40;;;17.60;32.00;;;;;;3473277;41;20122;-87
2021/04/26 10:22:33;;;;;;;8.15;1.20;;;17.60;31.40;;;;;;3468258;41;20086;-88
2021/04/26 10:25:00;;;;;;;3.15;0.90;;;16.80;32.10;;;;;;3472608;41;20066;-87
2021/04/26 10:27:32;;;;;;;4.32;1.33;;;17.10;32.00;;;;;;3471169;41;20331;-84
2021/04/26 10:30:06;;;;;;;2.72;1.13;;;18.00;30.90;;;;;;3465133;41;20049;-83
2021/04/26 10:32:54;;;;;;;4.60;1.00;;;18.80;29.60;;;;;;3467817;41;20070;-82
2021/04/26 10:35:24;;;;;;;2.67;0.90;;;19.50;29.00;;;;;;3465384;41;20093;-85
2021/04/26 10:37:51;;;;;;;6.20;1.30;;;20.20;28.90;;;;;;3459274;41;20048;-83
2021/04/26 10:40:22;;;;;;;7.20;1.35;;;21.30;28.30;;;;;;3469693;41;20060;-82
2021/04/26 10:42:50;;;;;;;6.88;1.33;;;21.80;27.70;;;;;;3465365;41;20103;-82
2021/04/26 10:45:28;;;;;;;;;;;21.80;27.70;;;;;;3468540;41;20075;-81
2021/04/26 10:48:11;;;;;;;2.53;0.90;;;22.20;27.20;;;;;;3460084;41;20076;-80
2021/04/26 10:50:42;;;;;;;4.05;0.80;;;23.00;26.70;;;;;;3461883;41;20085;-81
2021/04/26 10:53:11;;;;;;;2.42;0.80;;;24.00;26.10;;;;;;3467550;41;20089;-83
2021/04/26 10:55:51;;;;;;;2.53;1.00;;;24.50;25.70;;;;;;3466139;41;20105;-82
2021/04/26 10:58:29;;;;;;;3.78;1.13;;;25.30;25.40;;;;;;3466899;41;20078;-85
2021/04/26 11:00:57;;;;;;;2.70;0.90;;;24.90;24.50;;;;;;3464817;41;20108;-84
2021/04/26 11:03:41;;;;;;;4.72;1.10;;;22.90;24.80;;;;;;3453145;41;20339;-84
2021/04/26 11:11:59;;;;;;;3.40;1.00;;;20.90;26.40;;;;;;3460473;41;20071;-84
2021/04/26 11:14:29;;;;;;;4.13;1.52;;;19.90;27.20;;;;;;3465507;41;20070;-84
2021/04/26 11:17:02;;;;;;;8.00;1.13;;;21.30;27.40;;;;;;3466796;41;20067;-82
2021/04/26 11:19:30;;;;;;;3.63;1.13;;;23.40;25.90;;;;;;3466598;41;20127;-83
2021/04/26 11:22:00;;;;;;;;;;;24.60;24.70;;;;;;3469175;41;20097;-83
2021/04/26 11:24:52;;;;;;;2.42;0.77;;;25.80;23.90;;;;;;3460616;41;19972;-84
2021/04/26 11:27:29;;;;;;;4.50;1.25;;;26.50;24.10;;;;;;3465484;41;20074;-83
2021/04/26 11:30:20;;;;;;;2.60;1.10;;;27.80;23.90;;;;;;3474678;41;20093;-84
2021/04/26 11:33:23;;;;;;;3.25;1.10;;;27.50;23.10;;;;;;3480230;41;20058;-84
2021/04/26 11:36:09;;;;;;;3.88;1.00;;;24.90;24.00;;;;;;3457333;41;20078;-83
2021/04/26 11:38:39;;;;;;;4.05;1.17;;;24.10;24.40;;;;;;3476941;41;20321;-84
2021/04/26 11:41:07;;;;;;;4.13;1.15;;;24.60;24.50;;;;;;3471000;41;20070;-84
2021/04/26 11:43:44;;;;;;;2.83;1.52;;;25.70;24.10;;;;;;3476121;41;20082;-81
2021/04/26 11:46:13;;;;;;;2.38;0.98;;;26.50;23.50;;;;;;3476071;41;20086;-83
2021/04/26 11:48:40;;;;;;;3.60;1.00;;;27.20;23.50;;;;;;3471060;41;20074;-83
2021/04/26 11:51:09;;;;;;;2.17;1.00;;;28.30;22.90;;;;;;3476551;41;20112;-86
2021/04/26 11:53:36;;;;;;;2.65;1.00;;;29.50;22.40;;;;;;3476359;41;20082;-84
2021/04/26 11:56:14;;;;;;;1.98;0.90;;;29.90;22.00;;;;;;3471271;41;20071;-84
2021/04/26 11:58:42;;;;;;;2.08;0.80;;;30.70;22.10;;;;;;3472691;41;20091;-85
2021/04/26 12:01:11;;;;;;;3.17;1.10;;;30.50;22.00;;;;;;3476003;41;20071;-84
2021/04/26 12:03:55;;;;;;;6.00;1.08;;;30.00;22.00;;;;;;3473127;41;20138;-83
2021/04/26 12:06:24;;;;;;;6.88;0.98;;;29.30;22.60;;;;;;3471810;41;20099;-83
2021/04/26 12:08:51;;;;;;;1.98;0.90;;;29.30;22.40;;;;;;3472885;41;20078;-83
2021/04/26 12:11:24;;;;;;;1.83;0.85;;;28.40;22.20;;;;;;3474638;41;20074;-84
2021/04/26 12:14:10;;;;;;;8.45;1.83;;;26.50;22.70;;;;;;3470276;41;20091;-84
2021/04/26 12:16:39;;;;;;;2.38;1.00;;;25.90;23.40;;;;;;3470720;41;20086;-84
2021/04/26 12:19:06;;;;;;;3.20;1.02;;;26.90;23.50;;;;;;3472616;41;20071;-84
2021/04/26 12:21:35;;;;;;;2.85;0.98;;;28.40;22.30;;;;;;3472021;41;20106;-84
2021/04/26 12:24:05;;;;;;;2.78;1.20;;;29.00;22.40;;;;;;3472996;41;20087;-84
2021/04/26 12:26:33;;;;;;;;;;;28.80;22.50;;;;;;3472656;41;20074;-84
2021/04/26 12:29:00;;;;;;;5.70;0.98;;;29.50;22.30;;;;;;3470297;41;19973;-84
2021/04/26 12:31:29;;;;;;;3.25;1.25;;;30.10;22.20;;;;;;3475306;41;20085;-82
2021/04/26 12:34:08;;;;;;;5.60;1.30;;;30.20;21.70;;;;;;3484452;41;20075;-83
2021/04/26 12:36:37;;;;;;;1.58;0.85;;;30.90;21.60;;;;;;3473036;41;20090;-83
2021/04/26 12:39:05;;;;;;;7.47;4.50;;;30.70;21.40;;;;;;3471455;41;20066;-83
2021/04/26 12:41:40;;;;;;;2.38;0.93;;;31.00;21.60;;;;;;3457281;41;20339;-83
2021/04/26 12:44:10;;;;;;;6.78;1.10;;;31.10;20.90;;;;;;3463847;41;20086;-83
2021/04/26 12:46:42;;;;;;;2.37;1.10;;;31.10;21.10;;;;;;3472193;41;20070;-84
2021/04/26 12:49:19;;;;;;;3.70;0.95;;;31.40;21.10;;;;;;3466959;41;20078;-84
2021/04/26 12:51:48;;;;;;;4.72;1.60;;;31.50;20.90;;;;;;3462296;41;20067;-85
2021/04/26 12:54:18;;;;;;;3.90;1.02;;;31.50;20.90;;;;;;3471817;41;20078;-88
2021/04/26 12:56:57;;;;;;;6.97;1.10;;;31.70;20.70;;;;;;3477273;41;20070;-84
2021/04/26 12:59:43;;;;;;;4.95;1.00;;;32.00;21.10;;;;;;3473629;41;20423;-83
2021/04/26 13:02:10;;;;;;;2.33;0.85;;;31.80;20.80;;;;;;3474977;41;20086;-83
2021/04/26 13:04:38;;;;;;;8.15;3.03;;;31.50;21.00;;;;;;3473223;41;20078;-84
2021/04/26 13:07:05;;;;;;;4.82;1.30;;;32.40;21.10;;;;;;3466586;41;20058;-86
2021/04/26 13:09:32;;;;;;;2.83;1.10;;;33.00;21.00;;;;;;3452822;41;20117;-82
2021/04/26 13:12:05;;;;;;;6.93;1.23;;;33.40;20.70;;;;;;3470869;41;20086;-85
2021/04/26 13:14:34;;;;;;;2.38;0.93;;;33.60;20.60;;;;;;3465960;41;20090;-83
2021/04/26 13:17:04;;;;;;;3.45;1.20;;;34.00;20.40;;;;;;3465050;41;20071;-83
2021/04/26 13:19:33;;;;;;;5.25;1.30;;;33.60;20.20;;;;;;3467845;41;20089;-83
2021/04/26 13:22:00;;;;;;;3.65;0.88;;;33.70;20.30;;;;;;3477176;41;20134;-83
2021/04/26 13:24:28;;;;;;;3.63;1.58;;;33.80;20.40;;;;;;3467078;41;20436;-83
2021/04/26 13:26:59;;;;;;;4.70;1.73;;;33.90;20.30;;;;;;3473010;41;20410;-85
2021/04/26 13:29:28;;;;;;;3.63;0.90;;;33.80;20.20;;;;;;3467813;41;20069;-85
2021/04/26 13:31:58;;;;;;;3.10;1.10;;;33.20;20.30;;;;;;3471403;41;20066;-83
2021/04/26 13:34:27;;;;;;;5.05;1.40;;;32.90;20.40;;;;;;3473374;41;20095;-85
2021/04/26 13:36:58;;;;;;;3.40;1.70;;;32.60;20.40;;;;;;3474446;41;20062;-85
2021/04/26 13:39:27;;;;;;;2.25;1.10;;;32.80;20.30;;;;;;3470471;41;20130;-86
2021/04/26 13:41:54;;;;;;;6.90;1.70;;;33.10;20.10;;;;;;3467996;41;20079;-86
2021/04/26 13:44:22;;;;;;;6.23;1.47;;;33.20;20.30;;;;;;3468591;41;20379;-84
2021/04/26 13:46:52;;;;;;;2.53;0.98;;;32.90;20.50;;;;;;3474482;41;20334;-84
2021/04/26 13:49:21;;;;;;;4.32;1.10;;;31.50;20.20;;;;;;3479592;41;20071;-86
2021/04/26 13:51:49;;;;;;;2.85;1.25;;;31.10;20.90;;;;;;3479777;41;20090;-84
2021/04/26 13:54:16;;;;;;;3.85;1.30;;;30.40;21.00;;;;;;3476813;41;20093;-83
2021/04/26 13:56:44;;;;;;;5.03;1.10;;;30.90;20.90;;;;;;3475684;41;20061;-85
2021/04/26 13:59:12;;;;;;;3.92;1.00;;;31.80;20.90;;;;;;3471320;41;20120;-85
2021/04/26 14:01:40;;;;;;;2.17;0.93;;;32.30;20.40;;;;;;3466130;41;20074;-86
2021/04/26 14:04:07;;;;;;;5.40;1.67;;;32.80;20.30;;;;;;3470323;41;20069;-84
2021/04/26 14:06:35;;;;;;;8.77;1.40;;;33.10;20.30;;;;;;3452511;41;20302;-85
2021/04/26 14:09:08;;;;;;;2.83;0.93;;;33.60;20.20;;;;;;3478613;41;20378;-87
2021/04/26 14:11:36;;;;;;;4.18;0.85;;;34.30;20.10;;;;;;3470563;41;20302;-85
2021/04/26 14:14:03;;;;;;;2.63;1.00;;;34.60;19.60;;;;;;3482505;41;20066;-85
2021/04/26 14:16:30;;;;;;;2.17;0.90;;;34.00;19.50;;;;;;3482767;41;20047;-86
2021/04/26 14:18:57;;;;;;;4.33;0.83;;;34.10;19.90;;;;;;3474838;41;20079;-84
2021/04/26 14:21:25;;;;;;;3.33;1.08;;;33.60;19.70;;;;;;3480578;41;20078;-84
2021/04/26 14:23:53;;;;;;;3.55;0.88;;;31.70;20.00;;;;;;3490231;41;20133;-85
2021/04/26 14:26:21;;;;;;;4.22;1.17;;;29.40;20.20;;;;;;3475834;41;20085;-84
2021/04/26 14:28:51;;;;;;;5.78;1.30;;;29.20;20.60;;;;;;3477470;41;20340;-86
2021/04/26 14:31:18;;;;;;;5.63;1.10;;;30.00;20.40;;;;;;3475599;41;20074;-85
2021/04/26 14:33:45;;;;;;;3.47;1.23;;;30.80;20.30;;;;;;3477195;41;20082;-84
2021/04/26 14:36:13;;;;;;;5.90;1.27;;;31.70;20.20;;;;;;3464770;41;20063;-85
2021/04/26 14:38:41;;;;;;;3.83;1.40;;;32.10;20.10;;;;;;3455092;41;20094;-85
2021/04/26 14:41:08;;;;;;;2.25;0.95;;;32.00;20.00;;;;;;3477679;41;20086;-85
2021/04/26 14:43:36;;;;;;;10.40;2.40;;;31.40;20.20;;;;;;3476880;41;20085;-86
2021/04/26 14:46:04;;;;;;;2.58;1.15;;;30.80;20.10;;;;;;3469368;41;20074;-86
2021/04/26 14:48:31;;;;;;;4.32;1.13;;;30.30;20.00;;;;;;3473035;41;20074;-87
2021/04/26 14:50:58;;;;;;;3.35;1.15;;;30.20;20.50;;;;;;3460578;41;20061;-84
2021/04/26 14:53:25;;;;;;;4.05;1.48;;;30.90;20.50;;;;;;3463428;41;20082;-85
2021/04/26 14:55:53;;;;;;;5.80;1.20;;;31.20;20.40;;;;;;3476115;41;20085;-84
2021/04/26 14:58:23;;;;;;;4.15;1.23;;;31.50;20.40;;;;;;3474647;41;20173;-85
2021/04/26 15:00:50;;;;;;;2.25;1.00;;;31.80;20.30;;;;;;3470686;41;20414;-86
2021/04/26 15:03:17;;;;;;;4.25;1.40;;;32.00;20.00;;;;;;3466202;41;20157;-86
2021/04/26 15:05:44;;;;;;;2.03;0.90;;;31.70;20.20;;;;;;3481653;41;20102;-84
2021/04/26 15:08:14;;;;;;;2.05;1.10;;;32.00;20.10;;;;;;3480605;41;20066;-83
2021/04/26 15:10:43;;;;;;;8.02;1.60;;;32.10;20.20;;;;;;3460878;41;20094;-85
2021/04/26 15:13:14;;;;;;;4.35;1.30;;;32.30;20.10;;;;;;3473283;41;20066;-85
2021/04/26 15:15:44;;;;;;;6.95;1.30;;;32.00;20.30;;;;;;3485404;41;20103;-85
2021/04/26 15:18:14;;;;;;;2.85;1.00;;;31.40;20.30;;;;;;3480092;41;20397;-87
2021/04/26 15:20:42;;;;;;;1.90;0.82;;;31.50;20.40;;;;;;3473954;41;20058;-85
2021/04/26 15:23:13;;;;;;;2.72;1.10;;;31.80;20.30;;;;;;3469863;41;20084;-86
2021/04/26 15:25:44;;;;;;;2.90;1.00;;;32.20;20.10;;;;;;3472001;41;20041;-87
2021/04/26 15:28:12;;;;;;;;;;;32.30;20.00;;;;;;3467992;41;20070;-86
2021/04/26 15:30:40;;;;;;;;;;;32.20;20.10;;;;;;3472034;41;19976;-86
2021/04/26 15:33:09;;;;;;;4.15;1.20;;;31.60;20.40;;;;;;3463835;41;19990;-85
2021/04/26 15:35:36;;;;;;;;;;;31.60;20.50;;;;;;3464386;41;20082;-85
2021/04/26 15:38:06;;;;;;;7.30;1.40;;;31.60;20.60;;;;;;3470659;41;19973;-84
2021/04/26 15:40:34;;;;;;;6.82;1.33;;;31.40;20.50;;;;;;3484032;41;20136;-85
2021/04/26 15:43:01;;;;;;;5.93;1.25;;;31.30;20.50;;;;;;3479565;41;20067;-86
2021/04/26 15:45:28;;;;;;;6.95;1.17;;;31.40;20.50;;;;;;3467455;41;20099;-84
2021/04/26 15:47:56;;;;;;;2.28;0.80;;;31.40;20.40;;;;;;3482217;41;20086;-85
2021/04/26 15:50:24;;;;;;;3.58;1.08;;;31.20;20.40;;;;;;3465604;41;20090;-85
2021/04/26 15:52:51;;;;;;;6.20;2.53;;;30.10;20.50;;;;;;3471067;41;20384;-85
2021/04/26 15:55:19;;;;;;;3.20;1.20;;;28.30;21.00;;;;;;3481437;41;20094;-86
2021/04/26 15:57:46;;;;;;;4.55;1.25;;;26.90;21.50;;;;;;3466704;41;20395;-85
2021/04/26 16:00:14;;;;;;;5.60;1.20;;;26.60;21.80;;;;;;3470280;41;20066;-86
2021/04/26 16:02:45;;;;;;;3.03;1.20;;;27.30;21.60;;;;;;3477688;41;20377;-85
2021/04/26 16:05:16;;;;;;;2.42;1.00;;;28.40;21.30;;;;;;3472074;41;20066;-84
2021/04/26 16:07:44;;;;;;;1.75;0.90;;;28.80;21.10;;;;;;3481112;41;20059;-84
2021/04/26 16:10:13;;;;;;;2.58;1.10;;;29.40;20.80;;;;;;3467101;41;20082;-84
2021/04/26 16:12:42;;;;;;;4.32;1.40;;;30.00;20.70;;;;;;3467263;41;20065;-84
2021/04/26 16:15:13;;;;;;;11.70;1.67;;;30.50;20.60;;;;;;3487756;41;20033;-86
2021/04/26 16:17:42;;;;;;;4.90;1.27;;;30.60;20.50;;;;;;3478594;41;20022;-85
2021/04/26 16:20:11;;;;;;;3.00;1.10;;;30.60;20.50;;;;;;3472324;41;20110;-84
2021/04/26 16:22:41;;;;;;;2.25;1.00;;;30.50;20.60;;;;;;3459326;41;20053;-86
2021/04/26 16:25:11;;;;;;;4.18;1.30;;;30.00;20.50;;;;;;3487114;41;20082;-85
2021/04/26 16:27:39;;;;;;;3.38;1.48;;;29.50;20.90;;;;;;3481070;41;20407;-85
2021/04/26 16:30:10;;;;;;;3.08;1.10;;;29.50;20.80;;;;;;3468501;41;20066;-86
2021/04/26 16:32:37;;;;;;;3.45;1.10;;;29.10;20.90;;;;;;3480515;41;20070;-84
2021/04/26 16:35:06;;;;;;;3.63;1.20;;;28.50;21.00;;;;;;3470119;41;20074;-84
2021/04/26 16:37:33;;;;;;;3.25;1.15;;;27.70;21.40;;;;;;3477423;41;20323;-84
2021/04/26 16:40:06;;;;;;;3.88;1.40;;;27.50;21.50;;;;;;3467960;41;20299;-85
2021/04/26 16:42:33;;;;;;;6.20;2.70;;;27.50;21.60;;;;;;3480481;41;20218;-85
2021/04/26 16:45:00;;;;;;;3.95;1.52;;;27.20;21.70;;;;;;3466114;41;20061;-84
2021/04/26 16:47:27;;;;;;;4.60;1.40;;;26.80;21.90;;;;;;3466024;41;20091;-85
2021/04/26 16:49:55;;;;;;;2.30;1.17;;;26.40;21.80;;;;;;3475053;41;20311;-85
2021/04/26 16:52:22;;;;;;;11.47;3.20;;;26.00;22.00;;;;;;3472000;41;20071;-85
2021/04/26 16:54:49;;;;;;;6.32;1.50;;;26.20;22.10;;;;;;3468157;41;20359;-83
2021/04/26 16:57:20;;;;;;;5.70;1.38;;;26.00;21.80;;;;;;3469527;41;20067;-85
2021/04/26 16:59:48;;;;;;;4.63;1.27;;;24.80;22.20;;;;;;3462318;41;20098;-85
2021/04/26 17:02:15;;;;;;;3.85;1.08;;;23.80;22.90;;;;;;3474055;41;20086;-85
2021/04/26 17:04:43;;;;;;;6.07;1.50;;;22.70;23.40;;;;;;3473095;41;20082;-86
2021/04/26 17:10:07;;;;;;;5.25;1.98;;;22.10;23.90;;;;;;3472635;41;20352;-86
2021/04/26 17:12:35;;;;;;;2.33;0.90;;;22.80;23.70;;;;;;3473303;41;20054;-86
2021/04/26 17:15:04;;;;;;;3.90;1.20;;;23.20;23.40;;;;;;3472671;41;20090;-86
2021/04/26 17:17:34;;;;;;;3.88;1.10;;;23.50;23.20;;;;;;3480976;41;20394;-85
2021/04/26 17:20:01;;;;;;;5.50;1.45;;;23.10;23.30;;;;;;3478472;41;20057;-85
2021/04/26 17:22:28;;;;;;;5.60;1.48;;;23.00;23.20;;;;;;3461406;41;20071;-87
2021/04/26 17:25:00;;;;;;;2.85;1.17;;;22.80;23.40;;;;;;3463365;41;20087;-87
2021/04/26 17:27:27;;;;;;;2.58;0.98;;;22.60;23.60;;;;;;3471401;41;20066;-85
2021/04/26 17:29:57;;;;;;;4.82;1.50;;;22.60;23.60;;;;;;3464408;41;20327;-88
2021/04/26 17:32:27;;;;;;;3.95;1.10;;;22.50;23.70;;;;;;3471955;41;20065;-86
2021/04/26 17:34:57;;;;;;;3.58;1.20;;;22.40;23.80;;;;;;3464054;41;20066;-88
2021/04/26 17:37:24;;;;;;;5.65;1.20;;;22.30;23.90;;;;;;3464257;41;20112;-84
2021/04/26 17:39:57;;;;;;;2.95;1.23;;;22.00;23.80;;;;;;3456441;41;20090;-87
2021/04/26 17:42:24;;;;;;;3.85;1.60;;;21.60;23.90;;;;;;3464828;41;20062;-86
2021/04/26 17:44:51;;;;;;;4.50;1.50;;;20.90;24.40;;;;;;3465650;41;20066;-88
2021/04/26 17:47:24;;;;;;;3.25;1.27;;;19.80;25.00;;;;;;3466402;41;20066;-87
2021/04/26 17:49:51;;;;;;;3.17;1.35;;;18.50;26.20;;;;;;3475266;41;20078;-90
2021/04/26 17:52:18;;;;;;;3.67;1.50;;;17.20;27.30;;;;;;3475456;41;20062;-87
2021/04/26 17:54:46;;;;;;;4.25;1.33;;;16.20;28.10;;;;;;3478344;41;20043;-86
2021/04/26 17:57:14;;;;;;;3.38;1.25;;;15.40;28.80;;;;;;3465868;41;20053;-88
2021/04/26 17:59:45;;;;;;;3.70;1.75;;;14.90;29.40;;;;;;3466432;41;20390;-87
2021/04/26 18:02:14;;;;;;;3.45;1.02;;;14.40;29.90;;;;;;3466591;41;20094;-87
2021/04/26 18:04:47;;;;;;;5.40;1.25;;;14.00;30.40;;;;;;3475181;41;20043;-87
2021/04/26 18:07:15;;;;;;;5.00;1.90;;;13.60;30.80;;;;;;3466954;41;20030;-89
2021/04/26 18:09:44;;;;;;;11.95;3.45;;;13.30;31.40;;;;;;3475185;41;20057;-90
2021/04/26 18:12:11;;;;;;;5.28;1.60;;;12.90;32.00;;;;;;3467238;41;20035;-88
2021/04/26 18:14:40;;;;;;;4.90;2.08;;;12.70;32.60;;;;;;3476269;41;20022;-88
2021/04/26 18:17:09;;;;;;;7.20;1.95;;;12.50;33.00;;;;;;3468152;41;20054;-87
2021/04/26 18:19:40;;;;;;;7.60;1.90;;;12.40;33.10;;;;;;3460789;41;20041;-88
2021/04/26 18:25:20;;;;;;;5.60;2.00;;;12.10;33.70;;;;;;3475251;41;20042;-85
2021/04/26 18:27:48;;;;;;;;;;;11.90;34.30;;;;;;3461998;41;20063;-86
2021/04/26 18:30:19;;;;;;;6.38;1.88;;;11.70;34.90;;;;;;3482964;41;19932;-88
2021/04/26 18:32:47;;;;;;;6.38;1.50;;;11.70;35.10;;;;;;3474102;41;20026;-88
2021/04/26 18:35:14;;;;;;;3.17;1.33;;;11.60;35.40;;;;;;3470209;41;20038;-87
2021/04/26 18:37:50;;;;;;;6.40;2.10;;;11.40;35.70;;;;;;3457919;41;20367;-88
2021/04/26 18:40:17;;;;;;;3.10;1.50;;;11.30;36.10;;;;;;3464560;41;20357;-84
2021/04/26 18:42:46;;;;;;;4.75;1.77;;;11.20;36.60;;;;;;3457768;41;20071;-87
2021/04/26 18:45:16;;;;;;;5.75;1.75;;;11.10;36.90;;;;;;3470379;41;20151;-88
2021/04/26 18:47:44;;;;;;;4.20;1.40;;;11.00;37.20;;;;;;3467055;41;20427;-87
2021/04/26 18:50:14;;;;;;;;;;;11.00;37.30;;;;;;3456111;41;20046;-83
2021/04/26 18:52:43;;;;;;;5.55;2.10;;;10.90;37.60;;;;;;3450463;41;19948;-84
2021/04/26 18:55:13;;;;;;;5.63;1.92;;;10.80;37.90;;;;;;3456646;41;20086;-90
2021/04/26 18:57:40;;;;;;;4.65;1.63;;;10.60;38.20;;;;;;3465367;41;20046;-86